createdAt,value
2023-05-23T00:03:01.011Z,17.80
2023-05-23T00:15:01.396Z,16.90
2023-05-23T00:27:01.852Z,20.30
2023-05-23T00:39:02.295Z,18.90
2023-05-23T00:51:02.719Z,19.30
2023-05-23T01:03:03.312Z,19.90
2023-05-23T01:15:03.678Z,20.60
2023-05-23T01:27:04.132Z,18.60
2023-05-23T01:39:04.568Z,18.20
2023-05-23T01:51:04.961Z,17.30
2023-05-23T02:03:05.516Z,17.50
2023-05-23T02:15:05.894Z,17.40
2023-05-23T02:27:06.343Z,17.40
2023-05-23T02:39:06.822Z,17.10
2023-05-23T02:51:07.286Z,16.00
2023-05-23T03:03:07.810Z,16.30
2023-05-23T03:15:08.133Z,17.70
2023-05-23T03:27:08.633Z,17.40
2023-05-23T03:39:09.054Z,17.40
2023-05-23T03:51:09.514Z,17.70
2023-05-23T04:03:10.139Z,18.00
2023-05-23T04:15:10.439Z,19.20
2023-05-23T04:27:10.961Z,18.90
2023-05-23T04:39:11.343Z,20.90
2023-05-23T04:51:11.843Z,23.70
2023-05-23T05:03:12.243Z,25.60
2023-05-23T05:15:12.737Z,26.30
2023-05-23T05:27:13.180Z,26.10
2023-05-23T05:39:13.620Z,26.90
2023-05-23T05:51:14.093Z,22.40
2023-05-23T06:03:17.119Z,18.50
2023-05-23T06:15:14.963Z,12.20
2023-05-23T06:27:15.457Z,8.60
2023-05-23T06:39:15.875Z,7.50
2023-05-23T06:51:16.452Z,6.40
2023-05-23T07:03:16.806Z,7.60
2023-05-23T07:15:17.299Z,6.30
2023-05-23T07:27:17.682Z,8.00
2023-05-23T07:39:18.206Z,5.90
2023-05-23T07:51:18.636Z,6.70
2023-05-23T08:03:19.253Z,5.80
2023-05-23T08:15:19.543Z,5.50
2023-05-23T08:27:19.971Z,4.70
2023-05-23T08:39:20.459Z,5.50
2023-05-23T08:51:20.901Z,6.10
2023-05-23T09:03:21.352Z,6.00
2023-05-23T09:15:21.847Z,5.00
2023-05-23T09:27:22.267Z,5.30
2023-05-23T09:39:22.712Z,5.70
2023-05-23T09:51:23.216Z,5.80
2023-05-23T10:03:23.652Z,6.10
2023-05-23T10:15:24.119Z,5.90
2023-05-23T10:27:24.559Z,6.10
2023-05-23T10:39:25.020Z,6.10
2023-05-23T10:51:25.457Z,5.80
2023-05-23T11:03:26.032Z,6.50
2023-05-23T11:15:26.381Z,6.60
2023-05-23T11:27:26.782Z,8.60
2023-05-23T11:56:44.653Z,11.20
2023-05-23T12:08:45.106Z,11.80
2023-05-23T12:20:45.588Z,12.80
2023-05-23T12:32:46.109Z,12.80
2023-05-23T12:44:46.532Z,9.90
2023-05-23T12:56:46.925Z,9.40
2023-05-23T13:08:47.439Z,7.30
2023-05-23T13:20:47.963Z,7.50
2023-05-23T13:32:49.561Z,8.40
2023-05-23T13:44:48.749Z,9.30
2023-05-23T13:56:49.255Z,11.40
2023-05-23T14:08:49.710Z,12.70
2023-05-23T14:20:50.153Z,12.30
2023-05-23T14:32:50.623Z,13.30
2023-05-23T14:44:51.033Z,10.90
2023-05-23T14:56:53.388Z,10.30
2023-05-23T15:08:51.985Z,10.20
2023-05-23T15:20:52.428Z,11.00
2023-05-23T15:32:55.799Z,9.40
2023-05-23T15:44:53.402Z,9.10
2023-05-23T15:56:53.761Z,6.50
2023-05-23T16:08:54.250Z,5.90
2023-05-23T16:20:54.768Z,7.50
2023-05-23T16:32:55.239Z,8.20
2023-05-23T16:44:55.628Z,9.70
2023-05-23T16:56:56.063Z,11.00
2023-05-23T17:08:56.531Z,12.50
2023-05-23T17:20:56.993Z,11.80
2023-05-23T17:32:57.477Z,13.20
2023-05-23T17:44:57.921Z,12.80
2023-05-23T17:56:58.332Z,13.20
2023-05-23T18:08:58.809Z,13.70
2023-05-23T18:20:59.245Z,20.30
2023-05-23T18:32:59.800Z,13.70
2023-05-23T18:45:00.150Z,14.40
2023-05-23T18:57:00.631Z,13.90
2023-05-23T19:09:01.075Z,15.70
2023-05-23T19:21:01.534Z,15.30
2023-05-23T19:33:01.992Z,14.70
2023-05-23T19:45:02.464Z,36.20
2023-05-23T19:57:02.881Z,14.90
2023-05-23T20:09:03.336Z,16.30
2023-05-23T20:21:05.177Z,17.80
2023-05-23T20:33:04.368Z,20.00
2023-05-23T20:45:04.689Z,19.00
2023-05-23T20:57:05.169Z,17.00
2023-05-23T21:09:05.598Z,17.90
2023-05-23T21:21:06.091Z,17.50
2023-05-23T21:33:06.531Z,17.10
2023-05-23T21:45:06.944Z,16.80
2023-05-23T21:57:07.430Z,17.30
2023-05-23T22:09:07.888Z,16.50
2023-05-23T22:21:08.320Z,17.00
2023-05-23T22:33:08.870Z,16.90
2023-05-23T22:45:09.239Z,17.60
2023-05-23T22:57:09.707Z,16.00
2023-05-23T23:09:10.191Z,16.90
2023-05-23T23:21:10.610Z,16.50
2023-05-23T23:33:11.073Z,18.30
2023-05-23T23:45:11.533Z,18.70
2023-05-23T23:57:11.963Z,18.40
